createdAt,value
2018-12-13T00:01:47.497Z,11.55
2018-12-13T00:04:17.334Z,12.35
2018-12-13T00:06:46.369Z,10.82
2018-12-13T00:09:16.126Z,11.35
2018-12-13T00:11:46.929Z,14.20
2018-12-13T00:14:15.734Z,11.78
2018-12-13T00:16:55.437Z,14.43
2018-12-13T00:19:32.289Z,13.55
2018-12-13T00:22:05.361Z,15.28
2018-12-13T00:24:35.129Z,12.90
2018-12-13T00:27:10.441Z,12.65
2018-12-13T00:29:39.253Z,13.68
2018-12-13T00:32:08.969Z,12.05
2018-12-13T00:34:40.922Z,14.07
2018-12-13T00:37:10.634Z,14.85
2018-12-13T00:39:47.307Z,15.03
2018-12-13T00:42:20.318Z,11.20
2018-12-13T00:44:50.097Z,11.18
2018-12-13T00:47:18.961Z,13.00
2018-12-13T00:49:48.710Z,15.75
2018-12-13T00:52:30.117Z,13.60
2018-12-13T00:54:59.917Z,12.82
2018-12-13T00:57:30.690Z,16.90
2018-12-13T01:00:02.832Z,15.28
2018-12-13T01:02:31.737Z,15.55
2018-12-13T01:05:00.534Z,15.08
2018-12-13T01:07:36.101Z,10.03
2018-12-13T01:10:09.190Z,12.70
2018-12-13T01:12:37.998Z,13.65
2018-12-13T01:15:06.958Z,13.30
2018-12-13T01:17:44.045Z,14.75
2018-12-13T01:20:15.934Z,16.55
2018-12-13T01:22:47.990Z,12.53
2018-12-13T01:25:17.717Z,12.55
2018-12-13T01:27:51.614Z,12.63
2018-12-13T01:30:20.414Z,12.78
2018-12-13T01:32:50.214Z,13.08
2018-12-13T01:35:20.962Z,14.18
2018-12-13T01:37:53.322Z,18.23
2018-12-13T01:40:25.170Z,11.68
2018-12-13T01:42:54.000Z,12.30
2018-12-13T01:45:28.582Z,15.43
2018-12-13T01:48:01.542Z,12.20
2018-12-13T01:50:35.042Z,13.15
2018-12-13T01:53:06.122Z,16.02
2018-12-13T01:55:34.922Z,17.15
2018-12-13T01:58:05.662Z,13.43
2018-12-13T02:00:45.658Z,17.77
2018-12-13T02:03:15.387Z,22.65
2018-12-13T02:05:44.342Z,15.65
2018-12-13T02:08:14.106Z,17.10
2018-12-13T02:10:44.014Z,18.20
2018-12-13T02:13:12.903Z,24.95
2018-12-13T02:15:41.707Z,22.00
2018-12-13T02:18:11.498Z,23.52
2018-12-13T02:20:42.249Z,21.10
2018-12-13T02:23:26.034Z,21.68
2018-12-13T02:26:01.198Z,25.77
2018-12-13T02:28:41.310Z,26.70
2018-12-13T02:31:12.066Z,20.43
2018-12-13T02:33:41.182Z,17.23
2018-12-13T02:36:10.034Z,23.73
2018-12-13T02:38:42.392Z,21.02
2018-12-13T02:41:13.787Z,20.97
2018-12-13T02:43:42.682Z,19.73
2018-12-13T02:46:11.482Z,19.00
2018-12-13T02:49:02.207Z,23.85
2018-12-13T02:51:36.814Z,22.67
2018-12-13T02:54:06.674Z,22.10
2018-12-13T02:56:36.484Z,19.40
2018-12-13T02:59:07.582Z,22.20
2018-12-13T03:01:36.402Z,28.27
2018-12-13T03:04:06.172Z,22.85
2018-12-13T03:06:36.942Z,23.02
2018-12-13T03:09:31.916Z,25.72
2018-12-13T03:12:04.711Z,25.65
2018-12-13T03:14:38.307Z,22.85
2018-12-13T03:17:12.087Z,26.93
2018-12-13T03:19:40.882Z,23.65
2018-12-13T03:22:09.784Z,31.90
2018-12-13T03:24:38.654Z,22.90
2018-12-13T03:27:07.466Z,22.55
2018-12-13T03:29:46.536Z,25.32
2018-12-13T03:32:15.634Z,24.75
2018-12-13T03:34:56.239Z,23.35
2018-12-13T03:37:32.882Z,26.02
2018-12-13T03:40:07.864Z,26.90
2018-12-13T03:42:36.690Z,26.27
2018-12-13T03:45:24.703Z,23.90
2018-12-13T03:47:53.771Z,24.40
2018-12-13T03:50:22.562Z,21.30
2018-12-13T03:52:51.704Z,25.05
2018-12-13T03:55:35.708Z,27.52
2018-12-13T03:58:05.552Z,25.82
2018-12-13T04:00:34.454Z,28.07
2018-12-13T04:03:11.114Z,28.10
2018-12-13T04:05:41.902Z,29.70
2018-12-13T04:08:20.590Z,26.73
2018-12-13T04:10:51.384Z,23.55
2018-12-13T04:13:27.009Z,24.63
2018-12-13T04:16:01.619Z,24.45
2018-12-13T04:18:31.496Z,28.75
2018-12-13T04:21:06.404Z,25.95
2018-12-13T04:23:51.674Z,24.70
2018-12-13T04:26:28.764Z,23.60
2018-12-13T04:29:03.463Z,27.62
2018-12-13T04:31:32.314Z,24.67
2018-12-13T04:34:01.154Z,26.57
2018-12-13T04:36:44.394Z,28.32
2018-12-13T04:45:28.477Z,24.37
2018-12-13T05:01:22.802Z,29.60
2018-12-13T05:03:55.681Z,24.55
2018-12-13T05:06:28.474Z,32.42
2018-12-13T05:09:02.178Z,26.80
2018-12-13T05:11:32.002Z,25.20
2018-12-13T05:14:00.876Z,23.22
2018-12-13T05:16:34.614Z,30.57
2018-12-13T05:22:05.849Z,25.37
2018-12-13T05:24:37.802Z,28.77
2018-12-13T05:27:11.295Z,26.65
2018-12-13T05:29:42.158Z,30.50
2018-12-13T05:32:22.458Z,31.95
2018-12-13T05:34:52.302Z,28.30
2018-12-13T05:37:21.107Z,28.50
2018-12-13T05:39:56.598Z,29.82
2018-12-13T05:42:26.398Z,29.57
2018-12-13T05:44:55.226Z,30.40
2018-12-13T05:47:24.946Z,33.28
2018-12-13T05:49:56.898Z,27.00
2018-12-13T05:52:25.794Z,30.40
2018-12-13T05:54:55.646Z,23.80
2018-12-13T05:57:24.450Z,31.17
2018-12-13T05:59:54.214Z,30.43
2018-12-13T06:02:23.018Z,33.70
2018-12-13T06:04:56.422Z,27.25
2018-12-13T06:07:25.287Z,35.03
2018-12-13T06:09:56.026Z,29.87
2018-12-13T06:12:24.926Z,33.60
2018-12-13T06:14:58.646Z,28.15
2018-12-13T06:17:28.418Z,33.98
2018-12-13T06:20:05.750Z,29.30
2018-12-13T06:22:35.513Z,31.48
2018-12-13T06:25:06.388Z,33.55
2018-12-13T06:27:36.153Z,39.05
2018-12-13T06:30:07.649Z,30.17
2018-12-13T06:32:37.642Z,31.60
2018-12-13T06:35:23.574Z,31.02
2018-12-13T06:37:54.342Z,32.80
2018-12-13T06:40:24.060Z,33.65
2018-12-13T06:42:56.127Z,34.20
2018-12-13T06:45:28.119Z,36.68
2018-12-13T06:48:05.342Z,33.45
2018-12-13T06:50:42.012Z,30.15
2018-12-13T06:53:14.015Z,31.30
2018-12-13T06:56:02.951Z,32.60
2018-12-13T06:58:31.794Z,30.43
2018-12-13T07:01:04.285Z,34.35
2018-12-13T07:03:33.134Z,32.10
2018-12-13T07:06:02.949Z,32.45
2018-12-13T07:08:36.243Z,33.95
2018-12-13T07:11:06.091Z,33.15
2018-12-13T07:13:36.883Z,32.95
2018-12-13T07:16:06.723Z,36.90
2018-12-13T07:18:36.535Z,38.88
2018-12-13T07:21:09.628Z,38.28
2018-12-13T07:23:39.611Z,32.58
2018-12-13T07:26:17.946Z,39.92
2018-12-13T07:28:47.759Z,34.63
2018-12-13T07:31:16.563Z,38.55
2018-12-13T07:33:46.802Z,36.60
2018-12-13T07:36:15.739Z,32.60
2018-12-13T07:39:05.071Z,35.30
2018-12-13T07:41:33.926Z,36.77
2018-12-13T07:44:04.730Z,41.15
2018-12-13T07:46:45.903Z,38.25
2018-12-13T07:49:18.891Z,37.38
2018-12-13T07:51:48.703Z,29.60
2018-12-13T07:54:23.171Z,37.23
2018-12-13T07:56:52.015Z,35.75
2018-12-13T07:59:21.815Z,32.98
2018-12-13T08:04:52.871Z,32.67
2018-12-13T08:07:48.291Z,29.00
2018-12-13T08:10:18.055Z,31.82
2018-12-13T08:12:50.970Z,32.88
2018-12-13T08:15:20.335Z,37.03
2018-12-13T08:17:50.127Z,31.75
2018-12-13T08:20:23.035Z,32.93
2018-12-13T08:22:54.984Z,30.17
2018-12-13T08:25:28.763Z,32.83
2018-12-13T08:28:06.584Z,33.95
2018-12-13T08:30:39.259Z,40.95
2018-12-13T08:33:08.111Z,34.30
2018-12-13T08:35:49.447Z,32.67
2018-12-13T08:38:28.378Z,30.60
2018-12-13T08:41:09.207Z,30.90
2018-12-13T08:43:38.091Z,39.08
2018-12-13T08:46:36.509Z,37.73
2018-12-13T08:49:03.844Z,29.40
2018-12-13T08:51:37.371Z,27.10
2018-12-13T08:54:09.983Z,26.93
2018-12-13T08:56:49.414Z,29.85
2018-12-13T08:59:23.529Z,26.45
2018-12-13T09:01:56.293Z,29.37
2018-12-13T09:04:30.060Z,24.47
2018-12-13T09:07:02.635Z,25.92
2018-12-13T09:09:35.275Z,31.85
2018-12-13T09:12:05.015Z,26.10
2018-12-13T09:14:38.736Z,20.43
2018-12-13T09:17:34.024Z,25.88
2018-12-13T09:20:05.847Z,21.82
2018-12-13T09:22:37.888Z,24.50
2018-12-13T09:25:06.741Z,28.98
2018-12-13T09:27:42.936Z,23.60
2018-12-13T09:30:22.676Z,21.33
2018-12-13T09:32:51.520Z,25.62
2018-12-13T09:35:23.372Z,21.75
2018-12-13T09:37:55.140Z,22.13
2018-12-13T09:40:24.926Z,21.25
2018-12-13T09:42:54.656Z,20.02
2018-12-13T09:45:30.084Z,19.70
2018-12-13T09:48:07.275Z,17.07
2018-12-13T09:50:38.011Z,21.52
2018-12-13T09:53:11.604Z,21.87
2018-12-13T09:55:52.041Z,16.17
2018-12-13T09:58:20.816Z,18.65
2018-12-13T10:00:49.708Z,18.12
2018-12-13T10:03:36.949Z,20.57
2018-12-13T10:06:17.078Z,18.42
2018-12-13T10:08:50.985Z,19.05
2018-12-13T10:11:27.380Z,18.75
2018-12-13T10:13:56.524Z,16.20
2018-12-13T10:16:30.149Z,17.85
2018-12-13T10:19:02.956Z,14.60
2018-12-13T10:21:35.644Z,18.73
2018-12-13T10:27:07.892Z,20.77
2018-12-13T10:29:44.480Z,15.25
2018-12-13T10:32:17.587Z,13.50
2018-12-13T10:34:47.331Z,20.17
2018-12-13T10:37:16.124Z,15.75
2018-12-13T10:39:48.032Z,15.75
2018-12-13T10:42:16.892Z,17.15
2018-12-13T10:44:47.679Z,15.18
2018-12-13T10:47:16.559Z,19.57
2018-12-13T10:49:46.291Z,15.15
2018-12-13T10:52:20.133Z,18.60
2018-12-13T10:54:54.523Z,16.75
2018-12-13T10:57:23.335Z,19.73
2018-12-13T10:59:53.989Z,19.77
2018-12-13T11:02:29.259Z,17.75
2018-12-13T11:05:08.691Z,19.40
2018-12-13T11:07:39.490Z,16.73
2018-12-13T11:10:11.527Z,20.45
2018-12-13T11:12:41.291Z,20.43
2018-12-13T11:15:10.132Z,17.98
2018-12-13T11:17:38.967Z,24.75
2018-12-13T11:20:19.719Z,19.92
2018-12-13T11:22:53.838Z,18.15
2018-12-13T11:25:22.723Z,20.30
2018-12-13T11:28:22.258Z,19.75
2018-12-13T11:30:55.474Z,18.00
2018-12-13T11:33:24.294Z,23.07
2018-12-13T11:35:53.983Z,25.43
2018-12-13T11:38:27.862Z,21.40
2018-12-13T11:41:01.487Z,20.95
2018-12-13T11:43:31.274Z,17.30
2018-12-13T11:46:00.062Z,18.77
2018-12-13T11:48:29.831Z,17.15
2018-12-13T11:50:59.559Z,20.88
2018-12-13T11:53:29.243Z,20.88
2018-12-13T11:56:30.531Z,20.72
2018-12-13T11:58:59.351Z,18.23
2018-12-13T12:01:31.263Z,19.98
2018-12-13T12:04:03.019Z,23.18
2018-12-13T12:06:32.874Z,25.35
2018-12-13T12:09:12.237Z,17.52
2018-12-13T12:11:53.488Z,17.05
2018-12-13T12:14:25.695Z,24.70
2018-12-13T12:17:10.298Z,21.70
2018-12-13T12:20:01.507Z,17.37
2018-12-13T12:22:50.196Z,25.57
2018-12-13T12:25:24.291Z,22.52
2018-12-13T12:27:54.100Z,18.25
2018-12-13T12:30:24.916Z,20.75
2018-12-13T12:32:53.747Z,18.60
2018-12-13T12:35:22.626Z,17.15
2018-12-13T12:37:51.466Z,18.65
2018-12-13T12:40:20.295Z,23.73
2018-12-13T12:42:49.084Z,17.60
2018-12-13T12:45:17.919Z,21.62
2018-12-13T12:47:48.600Z,16.87
2018-12-13T12:50:18.408Z,24.75
2018-12-13T12:52:47.241Z,25.52
2018-12-13T12:55:17.115Z,21.82
2018-12-13T12:57:50.232Z,22.87
2018-12-13T13:00:21.016Z,24.70
2018-12-13T13:02:53.833Z,25.10
2018-12-13T13:05:26.475Z,21.20
2018-12-13T13:07:55.314Z,19.98
2018-12-13T13:10:29.802Z,22.60
2018-12-13T13:12:58.664Z,18.75
2018-12-13T13:15:40.235Z,22.90
2018-12-13T13:18:17.012Z,17.25
2018-12-13T13:20:45.802Z,21.17
2018-12-13T13:23:18.777Z,22.80
2018-12-13T13:25:47.628Z,21.05
2018-12-13T13:28:16.513Z,23.00
2018-12-13T13:30:53.588Z,22.75
2018-12-13T13:33:22.420Z,22.42
2018-12-13T13:35:54.171Z,29.90
2018-12-13T13:38:23.920Z,20.48
2018-12-13T13:40:52.762Z,18.05
2018-12-13T13:43:26.205Z,21.60
2018-12-13T13:45:59.088Z,20.30
2018-12-13T13:48:29.832Z,23.02
2018-12-13T13:51:03.552Z,25.92
2018-12-13T13:53:34.272Z,23.02
2018-12-13T13:56:15.529Z,29.27
2018-12-13T13:58:44.328Z,19.37
2018-12-13T14:01:13.140Z,35.80
2018-12-13T14:03:41.972Z,22.45
2018-12-13T14:06:12.773Z,29.98
2018-12-13T14:08:41.573Z,18.27
2018-12-13T14:11:10.417Z,20.27
2018-12-13T14:13:39.257Z,18.10
2018-12-13T14:16:21.147Z,21.80
2018-12-13T14:18:56.949Z,16.95
2018-12-13T14:21:27.733Z,20.48
2018-12-13T14:24:12.953Z,22.07
2018-12-13T14:26:50.349Z,21.62
2018-12-13T14:29:19.145Z,21.97
2018-12-13T14:31:47.997Z,19.92
2018-12-13T14:34:17.743Z,18.95
2018-12-13T14:36:55.405Z,20.50
2018-12-13T14:42:26.602Z,18.73
2018-12-13T14:45:00.569Z,23.67
2018-12-13T14:50:39.629Z,20.97
2018-12-13T14:53:08.462Z,17.92
2018-12-13T14:55:38.249Z,18.60
2018-12-13T14:58:07.065Z,24.40
2018-12-13T15:00:43.403Z,19.70
2018-12-13T15:03:22.325Z,22.62
2018-12-13T15:05:55.801Z,20.45
2018-12-13T15:08:24.597Z,21.70
2018-12-13T15:11:08.152Z,21.60
2018-12-13T15:13:42.364Z,24.02
2018-12-13T15:16:36.149Z,19.05
2018-12-13T15:19:05.045Z,21.97
2018-12-13T15:21:34.828Z,20.57
2018-12-13T15:24:11.012Z,19.12
2018-12-13T15:26:39.882Z,18.95
2018-12-13T15:29:11.756Z,20.02
2018-12-13T15:31:40.596Z,21.77
2018-12-13T15:34:10.352Z,21.85
2018-12-13T15:36:39.200Z,24.00
2018-12-13T15:39:12.010Z,22.17
2018-12-13T15:41:46.185Z,22.27
2018-12-13T15:44:18.002Z,25.88
2018-12-13T15:46:47.556Z,21.50
2018-12-13T15:49:16.393Z,21.60
2018-12-13T15:51:52.908Z,24.30
2018-12-13T15:54:25.241Z,22.30
2018-12-13T15:56:59.749Z,22.50
2018-12-13T15:59:28.649Z,21.15
2018-12-13T16:02:02.346Z,22.02
2018-12-13T16:04:33.353Z,22.48
2018-12-13T16:07:07.129Z,18.70
2018-12-13T16:09:41.825Z,20.25
2018-12-13T16:12:10.717Z,28.35
2018-12-13T16:14:46.841Z,25.48
2018-12-13T16:17:20.966Z,24.95
2018-12-13T16:20:09.949Z,23.62
2018-12-13T16:22:42.405Z,23.90
2018-12-13T16:25:24.624Z,25.50
2018-12-13T16:27:59.689Z,26.90
2018-12-13T16:30:29.050Z,20.32
2018-12-13T16:33:01.347Z,27.82
2018-12-13T16:35:49.585Z,21.95
2018-12-13T16:38:25.681Z,24.25
2018-12-13T16:40:54.506Z,28.85
2018-12-13T16:43:34.142Z,27.87
2018-12-13T16:46:10.061Z,32.35
2018-12-13T16:48:43.222Z,26.62
2018-12-13T16:51:13.305Z,23.30
2018-12-13T16:53:46.577Z,23.83
2018-12-13T16:56:26.942Z,29.60
2018-12-13T16:58:57.634Z,26.82
2018-12-13T17:01:26.448Z,25.17
2018-12-13T17:04:01.209Z,27.37
2018-12-13T17:06:35.321Z,26.77
2018-12-13T17:09:05.813Z,22.50
2018-12-13T17:11:34.714Z,27.55
2018-12-13T17:14:08.134Z,27.40
2018-12-13T17:16:37.001Z,27.35
2018-12-13T17:19:05.901Z,30.82
2018-12-13T17:21:34.711Z,28.98
2018-12-13T17:24:03.582Z,23.62
2018-12-13T17:26:32.438Z,26.37
2018-12-13T17:29:01.486Z,25.88
2018-12-13T17:31:31.705Z,24.92
2018-12-13T17:34:00.522Z,21.75
2018-12-13T17:36:34.957Z,27.20
2018-12-13T17:39:06.861Z,31.68
2018-12-13T17:41:37.597Z,25.82
2018-12-13T17:44:07.413Z,31.57
2018-12-13T17:46:38.395Z,26.48
2018-12-13T17:49:07.194Z,21.85
2018-12-13T17:51:47.896Z,23.20
2018-12-13T17:54:18.782Z,25.23
2018-12-13T17:56:52.669Z,24.70
2018-12-13T17:59:23.453Z,25.52
2018-12-13T18:01:52.266Z,23.60
2018-12-13T18:04:21.970Z,26.00
2018-12-13T18:07:02.121Z,25.00
2018-12-13T18:09:34.101Z,28.47
2018-12-13T18:12:03.989Z,26.10
2018-12-13T18:14:34.789Z,22.00
2018-12-13T18:17:05.609Z,25.30
2018-12-13T18:19:47.262Z,27.10
2018-12-13T18:22:17.193Z,24.43
2018-12-13T18:24:46.938Z,21.10
2018-12-13T18:27:17.786Z,21.50
2018-12-13T18:29:47.548Z,25.25
2018-12-13T18:50:31.673Z,27.82
2018-12-13T18:56:12.092Z,25.37
2018-12-13T18:58:41.933Z,26.50
2018-12-13T19:01:10.865Z,24.87
2018-12-13T19:21:44.420Z,25.32
2018-12-13T19:42:52.982Z,27.62
2018-12-13T20:03:25.797Z,29.50
2018-12-13T20:14:56.765Z,22.15
2018-12-13T20:17:25.620Z,23.10
2018-12-13T20:19:57.405Z,23.77
2018-12-13T20:22:26.205Z,27.70
2018-12-13T20:24:55.920Z,23.27
2018-12-13T20:27:32.513Z,32.17
2018-12-13T20:30:05.185Z,25.97
2018-12-13T20:32:34.205Z,24.15
2018-12-13T20:35:09.877Z,26.33
2018-12-13T20:37:38.717Z,24.23
2018-12-13T20:40:10.824Z,25.17
2018-12-13T20:42:41.561Z,24.80
2018-12-13T20:45:15.260Z,28.10
2018-12-13T20:47:44.077Z,34.92
2018-12-13T20:50:17.772Z,26.25
2018-12-13T20:52:46.592Z,31.42
2018-12-13T20:55:16.396Z,24.75
2018-12-13T20:57:45.273Z,26.20
2018-12-13T21:18:36.776Z,23.25
2018-12-13T21:21:10.768Z,24.75
2018-12-13T21:23:47.260Z,26.35
2018-12-13T21:26:17.972Z,28.38
2018-12-13T21:28:46.776Z,28.75
2018-12-13T21:31:15.597Z,29.55
2018-12-13T21:33:45.376Z,25.70
2018-12-13T21:36:17.456Z,31.65
2018-12-13T21:38:49.928Z,28.83
2018-12-13T21:41:18.724Z,27.00
2018-12-13T21:43:48.104Z,30.90
2018-12-13T21:46:18.112Z,28.05
2018-12-13T21:48:52.033Z,32.53
2018-12-13T21:51:24.716Z,28.60
2018-12-13T21:53:53.539Z,27.82
2018-12-13T21:56:30.766Z,27.77
2018-12-13T21:59:03.717Z,29.92
2018-12-13T22:01:32.272Z,29.23
2018-12-13T22:04:03.081Z,28.70
2018-12-13T22:06:31.995Z,29.45
2018-12-13T22:09:06.628Z,26.60
2018-12-13T22:11:50.344Z,35.15
2018-12-13T22:14:22.596Z,31.52
2018-12-13T22:16:51.428Z,34.43
2018-12-13T22:19:20.273Z,30.60
2018-12-13T22:21:49.065Z,26.33
2018-12-13T22:24:18.913Z,36.25
2018-12-13T22:26:48.693Z,29.20
2018-12-13T22:29:17.540Z,27.07
2018-12-13T22:31:47.072Z,31.45
2018-12-13T22:34:17.976Z,27.45
2018-12-13T22:36:47.373Z,32.17
2018-12-13T22:39:20.013Z,30.80
2018-12-13T22:41:49.834Z,29.42
2018-12-13T22:44:18.717Z,29.90
2018-12-13T22:46:53.190Z,28.07
2018-12-13T22:49:22.000Z,27.58
2018-12-13T22:51:50.805Z,28.55
2018-12-13T22:57:40.665Z,30.52
2018-12-13T23:09:34.216Z,24.35
2018-12-13T23:12:05.009Z,25.85
2018-12-13T23:14:43.773Z,26.02
2018-12-13T23:17:14.652Z,30.90
2018-12-13T23:19:43.488Z,28.05
2018-12-13T23:22:17.001Z,27.07
2018-12-13T23:24:45.884Z,30.88
2018-12-13T23:27:21.256Z,28.12
2018-12-13T23:29:50.126Z,32.25
2018-12-13T23:32:19.984Z,23.70
2018-12-13T23:35:02.396Z,27.22
2018-12-13T23:37:34.411Z,28.23
2018-12-13T23:40:05.476Z,27.62
2018-12-13T23:42:35.556Z,26.52
2018-12-13T23:45:04.793Z,28.67
2018-12-13T23:47:44.296Z,36.03
2018-12-13T23:50:13.079Z,30.80
2018-12-13T23:52:41.904Z,30.00
2018-12-13T23:55:14.880Z,28.32
2018-12-13T23:57:43.764Z,30.50
